createdAt,value
2022-12-31T00:01:19.299Z,9.70
2022-12-31T00:03:50.188Z,9.70
2022-12-31T00:06:24.765Z,10.30
2022-12-31T00:08:58.114Z,9.60
2022-12-31T00:11:31.932Z,10.20
2022-12-31T00:14:02.606Z,9.60
2022-12-31T00:16:36.384Z,10.00
2022-12-31T00:19:09.150Z,10.20
2022-12-31T00:21:42.551Z,9.60
2022-12-31T00:24:15.790Z,10.60
2022-12-31T00:26:46.386Z,10.40
2022-12-31T00:29:16.404Z,9.80
2022-12-31T00:31:46.422Z,10.70
2022-12-31T00:34:21.968Z,9.90
2022-12-31T00:36:55.307Z,10.00
2022-12-31T00:41:57.004Z,10.40
2022-12-31T00:44:27.738Z,9.90
2022-12-31T00:46:58.116Z,10.50
2022-12-31T00:49:32.942Z,9.30
2022-12-31T00:52:03.325Z,9.50
2022-12-31T00:54:37.706Z,10.60
2022-12-31T00:57:08.126Z,10.70
2022-12-31T00:59:43.279Z,10.00
2022-12-31T01:02:19.659Z,9.80
2022-12-31T01:04:51.037Z,10.00
2022-12-31T01:07:21.557Z,9.70
2022-12-31T01:09:53.437Z,10.60
2022-12-31T01:12:25.144Z,11.10
2022-12-31T01:14:55.623Z,10.10
2022-12-31T01:17:25.848Z,9.70
2022-12-31T01:20:00.867Z,9.70
2022-12-31T01:22:33.668Z,10.60
2022-12-31T01:25:08.292Z,10.20
2022-12-31T01:27:38.978Z,9.40
2022-12-31T01:30:12.432Z,11.10
2022-12-31T01:35:15.036Z,10.00
2022-12-31T01:37:44.994Z,9.90
2022-12-31T01:40:17.793Z,9.80
2022-12-31T01:42:55.481Z,9.50
2022-12-31T01:45:26.433Z,11.10
2022-12-31T01:48:00.444Z,10.10
2022-12-31T01:50:34.448Z,10.40
2022-12-31T01:53:07.993Z,9.40
2022-12-31T01:55:45.235Z,9.80
2022-12-31T01:58:22.574Z,10.60
2022-12-31T02:00:54.446Z,11.00
2022-12-31T02:03:27.602Z,9.70
2022-12-31T02:06:11.263Z,9.50
2022-12-31T02:11:27.479Z,10.50
2022-12-31T02:14:02.353Z,10.10
2022-12-31T02:16:45.427Z,10.80
2022-12-31T02:19:51.165Z,10.20
2022-12-31T02:22:39.097Z,9.80
2022-12-31T02:25:41.607Z,9.50
2022-12-31T02:28:25.293Z,9.60
2022-12-31T02:33:35.769Z,11.00
2022-12-31T02:36:19.098Z,9.70
2022-12-31T02:38:50.548Z,10.60
2022-12-31T02:41:36.655Z,9.30
2022-12-31T02:44:25.393Z,9.80
2022-12-31T02:47:18.093Z,11.20
2022-12-31T02:50:03.612Z,9.40
2022-12-31T02:52:48.827Z,9.50
2022-12-31T02:55:25.956Z,10.20
2022-12-31T02:58:06.509Z,9.20
2022-12-31T03:01:01.284Z,10.40
2022-12-31T03:03:34.704Z,9.70
2022-12-31T03:06:10.404Z,8.80
2022-12-31T03:08:58.853Z,9.30
2022-12-31T03:11:47.436Z,10.40
2022-12-31T03:14:17.606Z,9.50
2022-12-31T03:16:53.646Z,9.80
2022-12-31T03:19:44.050Z,9.30
2022-12-31T03:22:32.308Z,10.90
2022-12-31T03:25:26.050Z,9.70
2022-12-31T03:28:04.372Z,9.10
2022-12-31T03:30:35.667Z,9.20
2022-12-31T03:33:06.914Z,9.80
2022-12-31T03:35:38.833Z,9.90
2022-12-31T03:38:09.528Z,9.70
2022-12-31T03:40:45.680Z,9.30
2022-12-31T03:43:15.746Z,9.10
2022-12-31T03:45:48.606Z,9.90
2022-12-31T03:48:19.530Z,9.30
2022-12-31T03:50:51.764Z,8.90
2022-12-31T03:53:22.907Z,9.60
2022-12-31T03:55:56.080Z,9.70
2022-12-31T03:58:26.084Z,9.40
2022-12-31T04:00:56.162Z,8.40
2022-12-31T04:03:27.873Z,9.00
2022-12-31T04:05:58.378Z,9.80
2022-12-31T04:08:28.605Z,9.60
2022-12-31T04:10:59.301Z,9.00
2022-12-31T04:13:29.621Z,9.30
2022-12-31T04:16:01.718Z,9.50
2022-12-31T04:18:31.919Z,9.00
2022-12-31T04:21:04.443Z,9.60
2022-12-31T04:23:34.420Z,8.50
2022-12-31T04:26:04.795Z,9.30
2022-12-31T04:28:36.969Z,8.90
2022-12-31T04:31:07.448Z,8.50
2022-12-31T04:33:37.518Z,9.20
2022-12-31T04:36:10.512Z,10.00
2022-12-31T04:38:43.245Z,8.90
2022-12-31T04:41:20.427Z,8.50
2022-12-31T04:43:54.132Z,8.50
2022-12-31T04:46:27.483Z,8.80
2022-12-31T04:48:58.473Z,8.80
2022-12-31T04:51:30.593Z,9.10
2022-12-31T04:54:03.173Z,9.10
2022-12-31T04:56:36.114Z,8.50
2022-12-31T04:59:08.496Z,8.70
2022-12-31T05:01:39.021Z,9.20
2022-12-31T05:04:09.034Z,8.50
2022-12-31T05:06:39.486Z,8.90
2022-12-31T05:09:09.707Z,8.80
2022-12-31T05:11:39.870Z,8.70
2022-12-31T05:14:12.499Z,8.90
2022-12-31T05:16:45.894Z,9.30
2022-12-31T05:19:19.577Z,8.50
2022-12-31T05:22:04.156Z,9.40
2022-12-31T05:24:34.607Z,8.80
2022-12-31T05:27:05.387Z,8.60
2022-12-31T05:29:39.860Z,8.20
2022-12-31T05:32:11.512Z,8.00
2022-12-31T05:34:42.661Z,8.10
2022-12-31T05:37:16.063Z,9.00
2022-12-31T05:39:48.689Z,8.30
2022-12-31T05:42:24.753Z,8.70
2022-12-31T05:47:23.936Z,9.00
2022-12-31T05:49:54.095Z,8.40
2022-12-31T05:52:24.320Z,8.80
2022-12-31T05:54:54.293Z,8.80
2022-12-31T05:57:27.232Z,8.00
2022-12-31T05:59:57.603Z,8.80
2022-12-31T06:02:29.858Z,8.80
2022-12-31T06:05:00.375Z,9.00
2022-12-31T06:07:30.389Z,8.70
2022-12-31T06:10:00.657Z,8.10
2022-12-31T06:12:31.113Z,8.10
2022-12-31T06:15:01.114Z,7.80
2022-12-31T06:17:32.002Z,9.30
2022-12-31T06:20:12.225Z,8.10
2022-12-31T06:22:43.258Z,8.10
2022-12-31T06:25:13.282Z,7.80
2022-12-31T06:27:43.716Z,8.70
2022-12-31T06:30:15.484Z,7.90
2022-12-31T06:32:45.753Z,8.00
2022-12-31T06:35:16.947Z,7.50
2022-12-31T06:37:46.986Z,7.70
2022-12-31T06:40:17.249Z,7.50
2022-12-31T06:42:47.319Z,7.90
2022-12-31T06:45:18.260Z,7.10
2022-12-31T06:47:50.637Z,7.40
2022-12-31T06:50:24.035Z,9.00
2022-12-31T06:55:25.003Z,9.10
2022-12-31T06:57:57.012Z,7.60
2022-12-31T07:00:30.262Z,7.80
2022-12-31T07:05:51.072Z,7.80
2022-12-31T07:08:47.365Z,7.90
2022-12-31T07:11:22.898Z,7.90
2022-12-31T07:14:11.390Z,7.80
2022-12-31T07:16:58.543Z,7.70
2022-12-31T07:19:46.215Z,6.90
2022-12-31T07:22:20.080Z,7.90
2022-12-31T07:24:53.326Z,8.20
2022-12-31T07:27:50.264Z,7.80
2022-12-31T07:30:24.579Z,7.70
2022-12-31T07:33:24.282Z,7.20
2022-12-31T07:36:09.917Z,7.90
2022-12-31T07:38:52.925Z,7.80
2022-12-31T07:41:45.075Z,8.90
2022-12-31T07:44:38.611Z,8.40
2022-12-31T07:47:21.936Z,7.50
2022-12-31T07:49:55.154Z,7.00
2022-12-31T07:52:28.327Z,7.60
2022-12-31T07:55:03.208Z,7.40
2022-12-31T07:57:41.118Z,7.60
2022-12-31T08:00:17.574Z,8.40
2022-12-31T08:03:13.131Z,7.10
2022-12-31T08:05:52.772Z,7.30
2022-12-31T08:08:41.418Z,7.70
2022-12-31T08:11:21.461Z,7.70
2022-12-31T08:13:53.687Z,7.50
2022-12-31T08:16:26.644Z,7.00
2022-12-31T08:18:58.100Z,7.70
2022-12-31T08:21:45.505Z,7.80
2022-12-31T08:24:26.364Z,7.70
2022-12-31T08:27:05.656Z,7.30
2022-12-31T08:29:47.288Z,6.40
2022-12-31T08:32:23.923Z,7.50
2022-12-31T08:35:06.013Z,7.40
2022-12-31T08:37:47.495Z,7.20
2022-12-31T08:40:24.365Z,8.80
2022-12-31T08:43:17.114Z,7.20
2022-12-31T08:45:52.877Z,6.70
2022-12-31T08:48:35.936Z,6.40
2022-12-31T08:51:14.908Z,6.60
2022-12-31T08:53:48.053Z,6.40
2022-12-31T08:56:29.188Z,7.30
2022-12-31T08:59:20.922Z,6.70
2022-12-31T09:02:20.494Z,6.40
2022-12-31T09:05:05.521Z,7.30
2022-12-31T09:07:39.728Z,6.40
2022-12-31T09:10:23.113Z,6.50
2022-12-31T09:13:06.013Z,6.60
2022-12-31T09:15:43.549Z,6.30
2022-12-31T09:18:16.854Z,6.60
2022-12-31T09:23:18.945Z,6.50
2022-12-31T09:26:01.709Z,6.90
2022-12-31T09:28:44.626Z,5.50
2022-12-31T09:31:19.476Z,6.70
2022-12-31T09:33:55.412Z,7.10
2022-12-31T09:36:32.296Z,6.80
2022-12-31T09:39:14.951Z,6.40
2022-12-31T09:42:33.634Z,6.30
2022-12-31T09:45:30.627Z,5.80
2022-12-31T09:48:53.316Z,8.40
2022-12-31T09:51:32.223Z,7.80
2022-12-31T09:54:31.761Z,6.10
2022-12-31T09:57:20.623Z,6.00
2022-12-31T09:59:57.447Z,5.70
2022-12-31T10:02:52.570Z,7.40
2022-12-31T10:05:54.380Z,6.30
2022-12-31T10:08:45.637Z,5.50
2022-12-31T10:11:24.152Z,5.80
2022-12-31T10:14:19.135Z,6.20
2022-12-31T10:17:05.871Z,6.30
2022-12-31T10:20:28.626Z,7.20
2022-12-31T10:23:38.627Z,7.20
2022-12-31T10:26:31.860Z,6.80
2022-12-31T10:29:19.286Z,6.10
2022-12-31T10:32:05.148Z,6.60
2022-12-31T10:34:53.400Z,7.30
2022-12-31T10:37:29.717Z,6.70
2022-12-31T10:40:19.825Z,7.00
2022-12-31T10:43:39.238Z,8.00
2022-12-31T10:46:47.109Z,6.70
2022-12-31T10:50:05.769Z,8.10
2022-12-31T10:53:28.833Z,6.90
2022-12-31T10:56:48.210Z,6.50
2022-12-31T11:00:09.547Z,7.30
2022-12-31T11:03:37.989Z,7.40
2022-12-31T11:07:02.700Z,6.90
2022-12-31T11:10:08.793Z,5.90
2022-12-31T11:13:29.379Z,7.00
2022-12-31T11:16:29.740Z,7.30
2022-12-31T11:19:07.328Z,7.20
2022-12-31T11:21:58.207Z,8.40
2022-12-31T11:25:05.273Z,7.80
2022-12-31T11:28:08.720Z,8.70
2022-12-31T11:30:55.176Z,9.40
2022-12-31T11:33:51.037Z,10.00
2022-12-31T11:36:35.858Z,10.40
2022-12-31T11:39:32.141Z,8.50
2022-12-31T11:42:16.310Z,11.10
2022-12-31T11:44:55.495Z,7.80
2022-12-31T11:48:29.067Z,9.30
2022-12-31T11:51:01.327Z,9.30
2022-12-31T11:54:01.020Z,7.80
2022-12-31T11:56:35.432Z,8.20
2022-12-31T11:59:18.636Z,8.30
2022-12-31T12:01:57.742Z,9.80
2022-12-31T12:04:27.386Z,8.10
2022-12-31T12:06:57.424Z,10.10
2022-12-31T12:09:31.239Z,6.90
2022-12-31T12:12:02.493Z,7.40
2022-12-31T12:14:35.844Z,8.00
2022-12-31T12:17:09.973Z,9.10
2022-12-31T12:19:47.105Z,7.40
2022-12-31T12:22:25.009Z,12.40
2022-12-31T12:25:03.618Z,7.80
2022-12-31T12:27:35.396Z,9.00
2022-12-31T12:30:20.106Z,9.70
2022-12-31T12:32:58.705Z,6.90
2022-12-31T12:35:38.891Z,7.20
2022-12-31T12:38:15.439Z,8.00
2022-12-31T12:40:57.680Z,8.80
2022-12-31T12:43:30.867Z,8.10
2022-12-31T12:46:06.742Z,7.10
2022-12-31T12:48:42.247Z,6.60
2022-12-31T12:51:28.054Z,7.10
2022-12-31T12:54:06.008Z,8.30
2022-12-31T12:56:48.867Z,8.20
2022-12-31T12:59:53.795Z,7.00
2022-12-31T13:03:00.067Z,6.70
2022-12-31T13:05:51.851Z,8.10
2022-12-31T13:08:35.845Z,6.70
2022-12-31T13:11:31.912Z,7.40
2022-12-31T13:14:15.793Z,6.10
2022-12-31T13:16:56.356Z,6.40
2022-12-31T13:19:35.791Z,7.50
2022-12-31T13:22:14.826Z,6.40
2022-12-31T13:24:57.680Z,6.30
2022-12-31T13:27:35.233Z,5.90
2022-12-31T13:30:17.374Z,6.20
2022-12-31T13:32:56.041Z,6.80
2022-12-31T13:35:34.407Z,6.80
2022-12-31T13:38:11.351Z,5.60
2022-12-31T13:40:49.884Z,7.20
2022-12-31T13:43:27.781Z,6.10
2022-12-31T13:46:10.835Z,6.10
2022-12-31T13:48:49.291Z,6.20
2022-12-31T13:51:30.018Z,6.50
2022-12-31T13:54:10.109Z,5.80
2022-12-31T13:56:41.786Z,6.00
2022-12-31T13:59:20.335Z,6.40
2022-12-31T14:01:57.164Z,6.50
2022-12-31T14:04:34.015Z,6.40
2022-12-31T14:07:09.809Z,5.60
2022-12-31T14:09:39.653Z,5.40
2022-12-31T14:12:27.259Z,6.00
2022-12-31T14:15:06.617Z,6.40
2022-12-31T14:17:47.473Z,5.80
2022-12-31T14:20:28.920Z,6.80
2022-12-31T14:23:11.839Z,6.70
2022-12-31T14:25:51.027Z,5.60
2022-12-31T14:28:25.363Z,6.00
2022-12-31T14:31:02.570Z,5.40
2022-12-31T14:33:40.931Z,6.40
2022-12-31T14:36:36.858Z,6.80
2022-12-31T14:39:36.614Z,6.70
2022-12-31T14:42:22.076Z,5.80
2022-12-31T14:45:07.747Z,5.70
2022-12-31T14:47:58.395Z,5.70
2022-12-31T14:50:29.883Z,5.40
2022-12-31T14:53:15.839Z,5.80
2022-12-31T14:55:57.824Z,5.30
2022-12-31T14:58:36.011Z,5.30
2022-12-31T15:01:09.502Z,6.10
2022-12-31T15:03:46.097Z,5.60
2022-12-31T15:06:56.297Z,5.80
2022-12-31T15:09:59.085Z,4.80
2022-12-31T15:12:50.199Z,5.50
2022-12-31T15:15:47.628Z,6.10
2022-12-31T15:18:47.831Z,5.40
2022-12-31T15:21:53.516Z,5.30
2022-12-31T15:24:26.966Z,4.90
2022-12-31T15:26:59.493Z,5.70
2022-12-31T15:29:35.786Z,5.30
2022-12-31T15:32:17.752Z,5.30
2022-12-31T15:35:02.971Z,5.10
2022-12-31T15:37:41.641Z,4.90
2022-12-31T15:40:24.403Z,5.90
2022-12-31T15:42:58.635Z,6.20
2022-12-31T15:45:37.343Z,5.50
2022-12-31T15:48:22.068Z,5.10
2022-12-31T15:51:00.523Z,4.90
2022-12-31T15:53:41.487Z,5.50
2022-12-31T15:56:23.433Z,5.00
2022-12-31T15:58:58.876Z,5.10
2022-12-31T16:01:33.345Z,5.90
2022-12-31T16:04:14.065Z,4.60
2022-12-31T16:06:50.437Z,5.10
2022-12-31T16:09:24.445Z,5.30
2022-12-31T16:14:27.072Z,6.10
2022-12-31T16:16:59.828Z,5.60
2022-12-31T16:19:35.881Z,5.60
2022-12-31T16:22:14.810Z,5.00
2022-12-31T16:25:28.398Z,5.10
2022-12-31T16:27:37.527Z,5.30
2022-12-31T16:30:21.560Z,5.30
2022-12-31T16:32:52.824Z,5.60
2022-12-31T16:35:26.472Z,6.50
2022-12-31T16:38:19.668Z,5.30
2022-12-31T16:41:17.161Z,5.30
2022-12-31T16:43:51.961Z,5.30
2022-12-31T16:46:35.373Z,5.70
2022-12-31T16:49:20.774Z,5.30
2022-12-31T16:51:56.412Z,5.80
2022-12-31T16:54:38.306Z,5.30
2022-12-31T16:57:26.812Z,4.80
2022-12-31T17:00:02.437Z,6.00
2022-12-31T17:02:43.385Z,5.20
2022-12-31T17:05:22.034Z,5.30
2022-12-31T17:07:54.948Z,6.50
2022-12-31T17:10:35.894Z,4.90
2022-12-31T17:13:28.800Z,5.20
2022-12-31T17:16:06.095Z,5.20
2022-12-31T17:18:39.837Z,5.00
2022-12-31T17:21:11.312Z,6.50
2022-12-31T17:23:54.825Z,6.70
2022-12-31T17:26:28.449Z,5.80
2022-12-31T17:29:07.550Z,6.50
2022-12-31T17:31:59.015Z,6.20
2022-12-31T17:34:34.095Z,5.70
2022-12-31T17:37:18.349Z,5.70
2022-12-31T17:39:53.661Z,5.80
2022-12-31T17:42:30.369Z,6.30
2022-12-31T17:45:03.759Z,5.80
2022-12-31T17:50:30.220Z,6.20
2022-12-31T17:53:12.310Z,7.10
2022-12-31T17:55:46.059Z,6.20
2022-12-31T17:58:29.420Z,7.00
2022-12-31T18:01:05.569Z,6.60
2022-12-31T18:06:05.098Z,6.20
2022-12-31T18:08:34.353Z,6.20
2022-12-31T18:11:04.196Z,7.60
2022-12-31T18:13:36.444Z,7.00
2022-12-31T18:16:08.159Z,7.20
2022-12-31T18:18:41.227Z,5.70
2022-12-31T18:21:18.414Z,6.80
2022-12-31T18:23:49.526Z,8.00
2022-12-31T18:26:22.049Z,6.30
2022-12-31T18:28:52.331Z,5.40
2022-12-31T18:31:27.285Z,6.80
2022-12-31T18:34:03.255Z,6.40
2022-12-31T18:36:32.513Z,6.10
2022-12-31T18:39:07.489Z,6.10
2022-12-31T18:41:45.059Z,6.90
2022-12-31T18:44:16.252Z,7.30
2022-12-31T18:46:47.901Z,7.50
2022-12-31T18:49:17.415Z,10.90
2022-12-31T18:51:48.936Z,11.20
2022-12-31T18:54:24.173Z,8.70
2022-12-31T18:56:58.885Z,10.30
2022-12-31T18:59:31.658Z,10.70
2022-12-31T19:02:14.810Z,11.70
2022-12-31T19:04:44.503Z,12.00
2022-12-31T19:07:16.653Z,12.50
2022-12-31T19:09:54.594Z,12.70
2022-12-31T19:12:35.350Z,11.50
2022-12-31T19:15:26.773Z,13.10
2022-12-31T19:18:03.140Z,12.60
2022-12-31T19:20:33.634Z,12.70
2022-12-31T19:25:38.563Z,13.20
2022-12-31T19:28:20.394Z,14.50
2022-12-31T19:30:55.276Z,14.30
2022-12-31T19:33:30.087Z,11.60
2022-12-31T19:36:06.688Z,12.10
2022-12-31T19:38:36.160Z,13.50
2022-12-31T19:41:15.756Z,13.20
2022-12-31T19:43:51.432Z,13.10
2022-12-31T19:46:24.674Z,19.40
2022-12-31T19:49:02.019Z,17.60
2022-12-31T19:51:36.946Z,21.80
2022-12-31T19:54:13.178Z,23.70
2022-12-31T19:56:45.188Z,23.90
2022-12-31T19:59:22.973Z,24.60
2022-12-31T20:01:58.067Z,21.10
2022-12-31T20:04:33.168Z,26.70
2022-12-31T20:07:05.930Z,23.10
2022-12-31T20:09:40.821Z,26.70
2022-12-31T20:12:19.177Z,22.60
2022-12-31T20:14:55.032Z,18.40
2022-12-31T20:17:30.649Z,24.00
2022-12-31T20:20:03.449Z,20.80
2022-12-31T20:22:33.285Z,19.30
2022-12-31T20:25:08.012Z,17.60
2022-12-31T20:27:38.356Z,17.00
2022-12-31T20:30:12.511Z,18.50
2022-12-31T20:32:42.542Z,32.30
2022-12-31T20:35:20.326Z,25.20
2022-12-31T20:37:55.492Z,21.90
2022-12-31T20:40:25.693Z,21.80
2022-12-31T20:42:58.171Z,22.40
2022-12-31T20:45:28.006Z,22.70
2022-12-31T20:48:03.234Z,19.40
2022-12-31T20:50:33.507Z,22.70
2022-12-31T20:53:03.992Z,18.20
2022-12-31T20:55:41.584Z,17.50
2022-12-31T20:58:11.759Z,18.10
2022-12-31T21:00:50.712Z,15.70
2022-12-31T21:04:02.347Z,16.80
2022-12-31T21:06:14.279Z,15.50
2022-12-31T21:08:50.577Z,17.40
2022-12-31T21:11:38.915Z,14.70
2022-12-31T21:14:13.823Z,13.20
2022-12-31T21:16:43.925Z,14.10
2022-12-31T21:19:18.506Z,13.60
2022-12-31T21:21:50.534Z,14.10
2022-12-31T21:24:24.094Z,12.90
2022-12-31T21:26:56.713Z,11.60
2022-12-31T21:29:34.293Z,11.40
2022-12-31T21:32:12.815Z,12.30
2022-12-31T21:35:00.190Z,12.20
2022-12-31T21:37:58.435Z,11.60
2022-12-31T21:40:27.766Z,11.00
2022-12-31T21:43:00.041Z,11.40
2022-12-31T21:45:31.814Z,12.60
2022-12-31T21:48:19.955Z,11.10
2022-12-31T21:51:04.684Z,11.80
2022-12-31T21:53:36.930Z,9.50
2022-12-31T21:56:12.926Z,8.30
2022-12-31T21:59:08.017Z,11.50
2022-12-31T22:01:59.433Z,11.10
2022-12-31T22:07:26.132Z,11.10
2022-12-31T22:10:00.235Z,11.40
2022-12-31T22:12:36.642Z,10.40
2022-12-31T22:15:15.120Z,10.90
2022-12-31T22:17:54.143Z,11.10
2022-12-31T22:20:30.847Z,9.10
2022-12-31T22:23:00.695Z,11.60
2022-12-31T22:25:30.749Z,9.70
2022-12-31T22:31:02.089Z,11.50
2022-12-31T22:33:39.228Z,10.40
2022-12-31T22:36:13.872Z,13.60
2022-12-31T22:38:44.255Z,11.10
2022-12-31T22:41:21.777Z,10.20
2022-12-31T22:44:04.625Z,10.00
2022-12-31T22:46:39.110Z,11.10
2022-12-31T22:49:12.032Z,9.60
2022-12-31T22:51:56.822Z,9.80
2022-12-31T22:54:29.327Z,9.90
2022-12-31T22:56:58.576Z,9.50
2022-12-31T22:59:28.221Z,11.20
2022-12-31T23:01:57.372Z,7.60
2022-12-31T23:04:26.963Z,10.30
2022-12-31T23:06:59.420Z,9.20
2022-12-31T23:09:52.022Z,9.20
2022-12-31T23:12:22.164Z,8.20
2022-12-31T23:15:14.730Z,9.10
2022-12-31T23:18:05.312Z,8.60
2022-12-31T23:20:53.751Z,7.80
2022-12-31T23:23:30.422Z,8.60
2022-12-31T23:26:07.984Z,7.90
2022-12-31T23:28:41.289Z,9.50
2022-12-31T23:31:11.028Z,10.10
2022-12-31T23:33:45.742Z,9.10
2022-12-31T23:36:20.311Z,9.80
2022-12-31T23:38:58.164Z,8.40
2022-12-31T23:41:30.895Z,9.20
2022-12-31T23:44:03.881Z,10.30
2022-12-31T23:46:38.649Z,10.40
2022-12-31T23:49:11.711Z,11.80
2022-12-31T23:51:47.119Z,10.20
2022-12-31T23:54:19.436Z,10.60
2022-12-31T23:56:49.913Z,10.40
2022-12-31T23:59:20.463Z,10.00
